Time;durP1;ratioP1;P1;durP2;ratioP2;P2;SDS_P1;SDS_P2;PMS_P1;PMS_P2;Temp;Humidity;BMP_temperature;BMP_pressure;BME280_temperature;BME280_humidity;BME280_pressure;Samples;Min_cycle;Max_cycle;Signal;HPM_P1;HPM_P2
2020/12/03 00:00:35;;;;;;;16.23;10.20;;;;;;;;;;5028606;28;20474;-77
2020/12/03 00:03:05;;;;;;;17.67;10.77;;;;;;;;;;5024372;28;20212;-77
2020/12/03 00:05:33;;;;;;;20.07;11.13;;;;;;;;;;5033034;28;20212;-77
2020/12/03 00:08:01;;;;;;;19.97;10.43;;;;;;;;;;5026253;28;20208;-77
2020/12/03 00:10:29;;;;;;;17.27;9.70;;;;;;;;;;5020703;28;20211;-78
2020/12/03 00:13:14;;;;;;;18.23;10.70;;;;;;;;;;5025315;28;20212;-77
2020/12/03 00:15:42;;;;;;;17.77;10.20;;;;;;;;;;5021691;28;20209;-77
2020/12/03 00:18:10;;;;;;;20.97;11.73;;;;;;;;;;5023063;28;20216;-78
2020/12/03 00:20:38;;;;;;;17.90;10.67;;;;;;;;;;5023079;28;20239;-77
2020/12/03 00:23:06;;;;;;;21.40;11.13;;;;;;;;;;5022160;28;20217;-77
2020/12/03 00:25:33;;;;;;;17.47;10.13;;;;;;;;;;5015341;28;20236;-77
2020/12/03 00:28:01;;;;;;;19.93;9.77;;;;;;;;;;5037968;28;20568;-78
2020/12/03 00:30:28;;;;;;;19.63;10.40;;;;;;;;;;5019378;28;20201;-77
2020/12/03 00:32:57;;;;;;;21.60;10.60;;;;;;;;;;5007431;28;20204;-77
2020/12/03 00:35:25;;;;;;;17.27;10.23;;;;;;;;;;5025912;28;20223;-76
2020/12/03 00:37:54;;;;;;;20.83;10.77;;;;;;;;;;5023041;28;20227;-77
2020/12/03 00:40:22;;;;;;;21.53;10.50;;;;;;;;;;5028474;28;20220;-77
2020/12/03 00:42:54;;;;;;;18.87;10.90;;;;;;;;;;5011024;28;20231;-76
2020/12/03 00:45:22;;;;;;;23.50;10.70;;;;;;;;;;5015535;28;20776;-76
2020/12/03 00:47:50;;;;;;;17.87;10.47;;;;;;;;;;5027694;28;20208;-76
2020/12/03 00:50:19;;;;;;;18.03;10.43;;;;;;;;;;5035721;28;20208;-77
2020/12/03 00:52:47;;;;;;;17.87;9.50;;;;;;;;;;5022995;28;20228;-76
2020/12/03 00:55:16;;;;;;;20.00;11.17;;;;;;;;;;5054881;28;22126;-77
2020/12/03 00:57:44;;;;;;;19.67;10.00;;;;;;;;;;5024618;28;20224;-77
2020/12/03 01:00:16;;;;;;;18.17;10.47;;;;;;;;;;5056220;28;20232;-77
2020/12/03 01:02:44;;;;;;;19.40;11.03;;;;;;;;;;5026618;28;20228;-77
2020/12/03 01:05:13;;;;;;;17.83;10.10;;;;;;;;;;5033943;28;20211;-76
2020/12/03 01:07:41;;;;;;;17.57;9.90;;;;;;;;;;5034138;28;20207;-76
2020/12/03 01:10:14;;;;;;;16.90;10.27;;;;;;;;;;5036217;28;20197;-77
2020/12/03 01:12:42;;;;;;;17.83;10.20;;;;;;;;;;5013929;28;20228;-78
2020/12/03 01:15:10;;;;;;;19.53;10.93;;;;;;;;;;5023874;28;20212;-78
2020/12/03 01:17:38;;;;;;;17.40;10.10;;;;;;;;;;5022155;28;20692;-77
2020/12/03 01:20:08;;;;;;;18.83;10.30;;;;;;;;;;5017696;28;20681;-77
2020/12/03 01:22:35;;;;;;;20.67;11.20;;;;;;;;;;5026723;28;20240;-77
2020/12/03 01:25:04;;;;;;;22.07;10.17;;;;;;;;;;5036456;28;20212;-77
2020/12/03 01:27:32;;;;;;;20.53;10.53;;;;;;;;;;5032334;28;20211;-77
2020/12/03 01:29:59;;;;;;;19.67;11.07;;;;;;;;;;5039058;28;20548;-77
2020/12/03 01:32:27;;;;;;;19.07;9.93;;;;;;;;;;5041815;28;20720;-78
2020/12/03 01:34:55;;;;;;;15.93;9.60;;;;;;;;;;5036493;28;20416;-78
2020/12/03 01:37:22;;;;;;;20.33;10.90;;;;;;;;;;5039820;28;20211;-79
2020/12/03 01:39:50;;;;;;;22.37;11.97;;;;;;;;;;5023902;28;20228;-77
2020/12/03 01:42:19;;;;;;;20.47;11.73;;;;;;;;;;5024901;28;20243;-77
2020/12/03 01:44:49;;;;;;;22.67;11.90;;;;;;;;;;5037400;28;20218;-77
2020/12/03 01:47:22;;;;;;;20.57;11.60;;;;;;;;;;5035731;28;20680;-77
2020/12/03 01:49:51;;;;;;;21.90;12.67;;;;;;;;;;5042764;28;20196;-77
2020/12/03 01:52:18;;;;;;;22.37;12.47;;;;;;;;;;5025108;28;20228;-78
2020/12/03 01:54:46;;;;;;;20.83;11.93;;;;;;;;;;5032585;28;20211;-76
2020/12/03 01:57:43;;;;;;;23.63;12.90;;;;;;;;;;5037040;28;20673;-77
2020/12/03 02:00:14;;;;;;;23.67;12.57;;;;;;;;;;5026133;28;20611;-76
2020/12/03 02:02:43;;;;;;;23.20;12.27;;;;;;;;;;5025568;28;20239;-77
2020/12/03 02:05:16;;;;;;;20.90;11.67;;;;;;;;;;5036415;28;20209;-77
2020/12/03 02:07:45;;;;;;;19.67;11.70;;;;;;;;;;5003634;28;20208;-77
2020/12/03 02:10:13;;;;;;;19.73;11.50;;;;;;;;;;5024439;28;20281;-77
2020/12/03 02:12:42;;;;;;;19.83;11.47;;;;;;;;;;5006117;28;20233;-78
2020/12/03 02:15:10;;;;;;;20.10;12.00;;;;;;;;;;5023278;28;21333;-77
2020/12/03 02:17:38;;;;;;;22.00;12.50;;;;;;;;;;5018152;28;20213;-76
2020/12/03 02:20:10;;;;;;;22.77;12.03;;;;;;;;;;5009239;28;20693;-76
2020/12/03 02:22:38;;;;;;;19.17;11.10;;;;;;;;;;5026980;28;20221;-77
2020/12/03 02:25:06;;;;;;;20.07;11.37;;;;;;;;;;5029142;28;20213;-77
2020/12/03 02:27:34;;;;;;;21.40;11.70;;;;;;;;;;5030886;28;20208;-77
2020/12/03 02:30:02;;;;;;;20.83;12.13;;;;;;;;;;5034294;28;20205;-78
2020/12/03 02:32:29;;;;;;;23.20;12.30;;;;;;;;;;5037331;28;20227;-78
2020/12/03 02:34:57;;;;;;;18.40;11.00;;;;;;;;;;5026733;28;20204;-79
2020/12/03 02:37:25;;;;;;;18.73;11.07;;;;;;;;;;5044859;28;20204;-79
2020/12/03 02:39:54;;;;;;;19.37;11.93;;;;;;;;;;5040747;28;20430;-76
2020/12/03 02:42:22;;;;;;;22.00;11.93;;;;;;;;;;5024914;28;20235;-77
2020/12/03 02:44:50;;;;;;;22.67;11.43;;;;;;;;;;5031866;28;20215;-77
2020/12/03 02:47:20;;;;;;;19.17;12.03;;;;;;;;;;5024077;28;20213;-77
2020/12/03 02:49:47;;;;;;;21.00;11.50;;;;;;;;;;5031640;28;20212;-77
2020/12/03 02:52:18;;;;;;;23.03;10.70;;;;;;;;;;5009565;28;20224;-77
2020/12/03 02:54:46;;;;;;;19.07;11.40;;;;;;;;;;5026394;28;20576;-77
2020/12/03 02:57:14;;;;;;;23.43;11.90;;;;;;;;;;5023028;28;20223;-77
2020/12/03 02:59:42;;;;;;;20.00;10.90;;;;;;;;;;5027219;28;20208;-77
2020/12/03 03:02:10;;;;;;;22.20;12.40;;;;;;;;;;5029099;28;20232;-76
2020/12/03 03:04:37;;;;;;;19.03;11.07;;;;;;;;;;5031499;28;20200;-76
2020/12/03 03:07:06;;;;;;;19.23;11.67;;;;;;;;;;5027197;28;20696;-77
2020/12/03 03:09:33;;;;;;;19.40;10.73;;;;;;;;;;5031905;28;20227;-77
2020/12/03 03:12:02;;;;;;;19.93;11.80;;;;;;;;;;5030245;28;20251;-76
2020/12/03 03:14:30;;;;;;;23.90;12.13;;;;;;;;;;5025859;28;20219;-76
2020/12/03 03:16:57;;;;;;;23.77;12.70;;;;;;;;;;5029701;28;20201;-77
2020/12/03 03:19:25;;;;;;;17.60;10.10;;;;;;;;;;5009399;28;20205;-77
2020/12/03 03:21:53;;;;;;;22.43;11.80;;;;;;;;;;5010947;28;20232;-77
2020/12/03 03:24:21;;;;;;;22.67;11.90;;;;;;;;;;5028495;28;20208;-77
2020/12/03 03:26:49;;;;;;;20.97;11.90;;;;;;;;;;5030656;28;20200;-77
2020/12/03 03:29:17;;;;;;;20.17;11.53;;;;;;;;;;5026642;28;20219;-77
2020/12/03 03:31:45;;;;;;;21.07;11.97;;;;;;;;;;5012083;28;20236;-76
2020/12/03 03:34:13;;;;;;;18.60;11.30;;;;;;;;;;5037146;28;20204;-77
2020/12/03 03:36:40;;;;;;;19.67;11.57;;;;;;;;;;5022367;28;20208;-78
2020/12/03 03:39:12;;;;;;;23.63;12.30;;;;;;;;;;5021671;28;20224;-78
2020/12/03 03:41:39;;;;;;;19.63;11.90;;;;;;;;;;5025681;28;20232;-78
2020/12/03 03:44:08;;;;;;;22.50;12.80;;;;;;;;;;5027902;28;20209;-78
2020/12/03 03:46:36;;;;;;;21.03;11.53;;;;;;;;;;5037545;28;20219;-79
2020/12/03 03:49:04;;;;;;;23.37;12.67;;;;;;;;;;5020163;28;20217;-78
2020/12/03 03:51:31;;;;;;;20.60;12.13;;;;;;;;;;5030740;28;20259;-76
2020/12/03 03:53:59;;;;;;;21.33;11.83;;;;;;;;;;5032105;28;20208;-77
2020/12/03 03:56:27;;;;;;;21.13;11.90;;;;;;;;;;5028529;28;20251;-75
2020/12/03 03:58:55;;;;;;;21.23;13.10;;;;;;;;;;5019086;28;20215;-76
2020/12/03 04:01:22;;;;;;;24.90;13.50;;;;;;;;;;5024608;28;20228;-76
2020/12/03 04:03:51;;;;;;;21.60;12.53;;;;;;;;;;5023382;28;20583;-77
2020/12/03 04:06:18;;;;;;;22.57;13.07;;;;;;;;;;5009679;28;20216;-76
2020/12/03 04:08:46;;;;;;;19.17;12.13;;;;;;;;;;5040326;28;20573;-77
2020/12/03 04:11:15;;;;;;;23.43;12.67;;;;;;;;;;5025902;28;20234;-77
2020/12/03 04:13:44;;;;;;;20.13;12.10;;;;;;;;;;5008495;28;20208;-78
2020/12/03 04:16:12;;;;;;;22.23;13.67;;;;;;;;;;5053453;28;20196;-77
2020/12/03 04:18:40;;;;;;;23.03;12.80;;;;;;;;;;5021180;28;20466;-77
2020/12/03 04:21:10;;;;;;;19.30;11.43;;;;;;;;;;5024568;28;20229;-77
2020/12/03 04:23:37;;;;;;;22.27;11.67;;;;;;;;;;5004332;28;20212;-79
2020/12/03 04:26:05;;;;;;;20.27;11.87;;;;;;;;;;5040488;28;20204;-79
2020/12/03 04:28:32;;;;;;;21.57;12.60;;;;;;;;;;5048786;28;20193;-79
2020/12/03 04:31:00;;;;;;;20.30;11.97;;;;;;;;;;5045528;28;20216;-79
2020/12/03 04:33:28;;;;;;;21.30;12.33;;;;;;;;;;5027077;28;20204;-77
2020/12/03 04:35:55;;;;;;;19.73;12.10;;;;;;;;;;5020289;28;20239;-78
2020/12/03 04:38:24;;;;;;;21.20;12.53;;;;;;;;;;5039272;28;20674;-78
2020/12/03 04:40:51;;;;;;;22.53;11.83;;;;;;;;;;5024786;28;20732;-78
2020/12/03 04:43:30;;;;;;;19.80;11.80;;;;;;;;;;5003617;28;20607;-77
2020/12/03 04:46:02;;;;;;;19.13;11.40;;;;;;;;;;5024508;28;20247;-78
2020/12/03 04:48:59;;;;;;;22.70;12.67;;;;;;;;;;4999764;28;20693;-77
2020/12/03 04:51:37;;;;;;;20.97;12.00;;;;;;;;;;5015470;28;20224;-77
2020/12/03 04:54:19;;;;;;;20.53;12.20;;;;;;;;;;5019865;28;20204;-78
2020/12/03 04:56:55;;;;;;;21.07;12.23;;;;;;;;;;5024432;28;20215;-77
2020/12/03 04:59:33;;;;;;;21.30;12.33;;;;;;;;;;5037127;28;20429;-77
2020/12/03 05:02:16;;;;;;;20.97;12.67;;;;;;;;;;5057703;28;20706;-79
2020/12/03 05:04:49;;;;;;;19.77;12.17;;;;;;;;;;5033315;28;20581;-77
2020/12/03 05:07:16;;;;;;;21.53;12.50;;;;;;;;;;5016939;28;20204;-77
2020/12/03 05:09:50;;;;;;;21.70;12.90;;;;;;;;;;5021858;28;20646;-77
2020/12/03 05:12:22;;;;;;;23.70;12.83;;;;;;;;;;5018448;28;20231;-78
2020/12/03 05:14:52;;;;;;;19.70;11.73;;;;;;;;;;5024885;28;20208;-77
2020/12/03 05:17:30;;;;;;;25.30;11.57;;;;;;;;;;5019999;28;20200;-77
2020/12/03 05:20:17;;;;;;;19.80;12.10;;;;;;;;;;5055087;28;20209;-78
2020/12/03 05:22:55;;;;;;;18.60;11.47;;;;;;;;;;5052738;28;20571;-77
2020/12/03 05:25:25;;;;;;;21.70;11.73;;;;;;;;;;5054114;28;20223;-78
2020/12/03 05:27:54;;;;;;;20.53;12.27;;;;;;;;;;5050640;28;20208;-77
2020/12/03 05:30:22;;;;;;;22.27;11.97;;;;;;;;;;5022658;28;20200;-78
2020/12/03 05:32:50;;;;;;;21.10;11.77;;;;;;;;;;5038468;28;20233;-77
2020/12/03 05:35:18;;;;;;;20.60;12.43;;;;;;;;;;5021292;28;20199;-77
2020/12/03 05:37:46;;;;;;;20.00;12.07;;;;;;;;;;5016410;28;20212;-78
2020/12/03 05:40:23;;;;;;;18.70;11.07;;;;;;;;;;5009297;28;20553;-77
2020/12/03 05:42:54;;;;;;;20.60;12.17;;;;;;;;;;5048413;28;20246;-76
2020/12/03 05:45:27;;;;;;;20.80;12.40;;;;;;;;;;5026446;28;20208;-77
2020/12/03 05:47:57;;;;;;;20.97;11.83;;;;;;;;;;5029291;28;20212;-78
2020/12/03 05:50:35;;;;;;;20.87;11.77;;;;;;;;;;4993008;28;21601;-77
2020/12/03 05:53:05;;;;;;;20.60;12.57;;;;;;;;;;5013205;28;20193;-77
2020/12/03 05:55:34;;;;;;;20.63;12.67;;;;;;;;;;5026100;28;20231;-77
2020/12/03 05:58:20;;;;;;;21.50;12.90;;;;;;;;;;5005829;28;20212;-77
2020/12/03 06:00:49;;;;;;;19.33;11.20;;;;;;;;;;5020253;28;20243;-78
2020/12/03 06:03:27;;;;;;;19.60;11.47;;;;;;;;;;5032750;28;20573;-78
2020/12/03 06:06:09;;;;;;;19.93;12.97;;;;;;;;;;5021533;28;20586;-78
2020/12/03 06:08:51;;;;;;;22.30;11.93;;;;;;;;;;5024703;28;20205;-78
2020/12/03 06:11:38;;;;;;;22.13;13.00;;;;;;;;;;5022633;28;20239;-77
2020/12/03 06:14:17;;;;;;;19.63;12.13;;;;;;;;;;5013729;28;21468;-77
2020/12/03 06:16:46;;;;;;;21.80;12.77;;;;;;;;;;5015373;28;20604;-77
2020/12/03 06:19:25;;;;;;;19.40;11.30;;;;;;;;;;5003796;28;20200;-79
2020/12/03 06:22:00;;;;;;;19.03;12.00;;;;;;;;;;5002747;28;21413;-77
2020/12/03 06:24:41;;;;;;;23.13;12.60;;;;;;;;;;5026386;28;20210;-77
2020/12/03 06:27:24;;;;;;;21.60;12.40;;;;;;;;;;5038293;28;20212;-78
2020/12/03 06:29:59;;;;;;;21.27;12.13;;;;;;;;;;5029777;28;20212;-77
2020/12/03 06:32:43;;;;;;;21.00;12.33;;;;;;;;;;5011767;28;20259;-77
2020/12/03 06:35:21;;;;;;;20.50;11.40;;;;;;;;;;5023508;28;20213;-78
2020/12/03 06:37:53;;;;;;;20.40;12.10;;;;;;;;;;5028149;28;20207;-77
2020/12/03 06:40:23;;;;;;;20.27;12.80;;;;;;;;;;5030657;28;20219;-77
2020/12/03 06:42:53;;;;;;;21.70;12.47;;;;;;;;;;5020959;28;20578;-77
2020/12/03 06:45:30;;;;;;;23.33;13.17;;;;;;;;;;5016505;28;20578;-76
2020/12/03 06:48:49;;;;;;;22.20;12.90;;;;;;;;;;5021757;28;20200;-76
2020/12/03 06:51:38;;;;;;;22.43;13.30;;;;;;;;;;4907382;28;20226;-76
2020/12/03 06:54:22;;;;;;;20.53;12.17;;;;;;;;;;4909309;28;20591;-77
2020/12/03 06:57:37;;;;;;;20.17;12.43;;;;;;;;;;5019399;28;20212;-76
2020/12/03 07:00:25;;;;;;;19.20;12.57;;;;;;;;;;5028590;28;20200;-76
2020/12/03 07:03:28;;;;;;;20.63;12.73;;;;;;;;;;5037308;28;20233;-76
2020/12/03 07:06:23;;;;;;;21.33;12.30;;;;;;;;;;5018686;28;20227;-76
2020/12/03 07:09:23;;;;;;;19.77;12.07;;;;;;;;;;4999043;28;20208;-76
2020/12/03 07:12:18;;;;;;;22.30;13.13;;;;;;;;;;5001934;28;20236;-77
2020/12/03 07:15:23;;;;;;;19.63;11.90;;;;;;;;;;5032925;28;20279;-77
2020/12/03 07:18:22;;;;;;;28.23;12.47;;;;;;;;;;5053943;28;20608;-75
2020/12/03 07:21:14;;;;;;;19.83;11.53;;;;;;;;;;5016498;28;21431;-75
2020/12/03 07:23:47;;;;;;;20.87;12.10;;;;;;;;;;5017541;28;20221;-76
2020/12/03 07:26:22;;;;;;;21.63;12.17;;;;;;;;;;5042870;28;20204;-79
2020/12/03 07:28:51;;;;;;;22.33;11.93;;;;;;;;;;5031142;28;20192;-79
2020/12/03 07:31:23;;;;;;;22.47;12.67;;;;;;;;;;5020108;28;20224;-76
2020/12/03 07:34:04;;;;;;;22.00;13.40;;;;;;;;;;5018260;28;20200;-78
2020/12/03 07:36:39;;;;;;;18.87;11.70;;;;;;;;;;5020649;28;20575;-77
2020/12/03 07:39:09;;;;;;;20.60;11.90;;;;;;;;;;5022784;28;20297;-77
2020/12/03 07:41:50;;;;;;;18.73;11.20;;;;;;;;;;5022902;28;20712;-78
2020/12/03 07:44:23;;;;;;;18.17;11.17;;;;;;;;;;5019108;28;20210;-77
2020/12/03 07:46:53;;;;;;;18.07;10.67;;;;;;;;;;5024044;28;20208;-77
2020/12/03 07:49:43;;;;;;;17.37;11.10;;;;;;;;;;5015466;28;20682;-77
2020/12/03 07:52:31;;;;;;;16.57;10.13;;;;;;;;;;5007698;28;20728;-77
2020/12/03 07:55:44;;;;;;;14.43;9.50;;;;;;;;;;5018668;28;20211;-79
2020/12/03 07:58:36;;;;;;;14.57;9.20;;;;;;;;;;4996362;28;20205;-77
2020/12/03 08:01:04;;;;;;;13.80;10.03;;;;;;;;;;5037783;28;20721;-77
2020/12/03 08:03:46;;;;;;;13.57;9.10;;;;;;;;;;5025172;28;20235;-79
2020/12/03 08:06:20;;;;;;;18.40;9.50;;;;;;;;;;5021709;28;20685;-77
2020/12/03 08:08:50;;;;;;;17.60;11.03;;;;;;;;;;5020098;28;21324;-77
2020/12/03 08:11:44;;;;;;;16.07;10.07;;;;;;;;;;5011689;28;20578;-77
2020/12/03 08:14:37;;;;;;;14.80;9.43;;;;;;;;;;5022143;28;20201;-78
2020/12/03 08:17:47;;;;;;;15.03;9.53;;;;;;;;;;5028873;28;20446;-77
2020/12/03 08:20:20;;;;;;;11.53;7.87;;;;;;;;;;5019070;28;20200;-77
2020/12/03 08:22:52;;;;;;;17.47;9.13;;;;;;;;;;5013234;28;20241;-77
2020/12/03 08:25:22;;;;;;;14.50;8.20;;;;;;;;;;5007906;28;20591;-77
2020/12/03 08:27:52;;;;;;;12.03;7.53;;;;;;;;;;5006386;28;20205;-77
2020/12/03 08:30:35;;;;;;;11.97;7.77;;;;;;;;;;5036525;28;23054;-78
2020/12/03 08:33:10;;;;;;;13.23;7.90;;;;;;;;;;5050503;28;20208;-77
2020/12/03 08:35:38;;;;;;;12.30;7.43;;;;;;;;;;5040837;28;20204;-77
2020/12/03 08:38:06;;;;;;;10.83;7.00;;;;;;;;;;5023435;28;20667;-79
2020/12/03 08:40:36;;;;;;;10.07;7.07;;;;;;;;;;5020983;28;20215;-78
2020/12/03 08:43:07;;;;;;;10.63;6.83;;;;;;;;;;5002932;28;22611;-77
2020/12/03 08:45:44;;;;;;;10.63;6.20;;;;;;;;;;5019972;28;20205;-77
2020/12/03 08:48:15;;;;;;;8.17;5.43;;;;;;;;;;5026525;28;20219;-77
2020/12/03 08:50:43;;;;;;;9.80;5.73;;;;;;;;;;5023527;28;20204;-77
2020/12/03 08:53:12;;;;;;;8.60;5.27;;;;;;;;;;5019890;28;20216;-77
2020/12/03 08:55:40;;;;;;;10.20;5.67;;;;;;;;;;5032104;28;20216;-77
2020/12/03 08:58:10;;;;;;;11.97;6.43;;;;;;;;;;5032891;28;20208;-77
2020/12/03 09:00:41;;;;;;;9.43;5.40;;;;;;;;;;5031406;28;20216;-78
2020/12/03 09:03:12;;;;;;;8.40;5.47;;;;;;;;;;5057586;28;20239;-78
2020/12/03 09:05:44;;;;;;;8.30;5.37;;;;;;;;;;5024696;28;20208;-77
2020/12/03 09:08:18;;;;;;;9.63;5.30;;;;;;;;;;5058854;28;20208;-78
2020/12/03 09:10:47;;;;;;;11.50;5.33;;;;;;;;;;5048558;28;20201;-77
2020/12/03 09:13:17;;;;;;;8.17;5.10;;;;;;;;;;5020257;28;20211;-77
2020/12/03 09:15:46;;;;;;;9.17;5.80;;;;;;;;;;5019282;28;20264;-78
2020/12/03 09:18:14;;;;;;;7.97;5.30;;;;;;;;;;5029522;28;20212;-78
2020/12/03 09:20:42;;;;;;;9.07;5.33;;;;;;;;;;5017799;28;20578;-77
2020/12/03 09:23:16;;;;;;;7.77;4.70;;;;;;;;;;5032200;28;20231;-78
2020/12/03 09:25:44;;;;;;;8.77;5.30;;;;;;;;;;5028187;28;20209;-78
2020/12/03 09:28:11;;;;;;;5.70;3.73;;;;;;;;;;5014613;28;20211;-77
2020/12/03 09:30:42;;;;;;;8.50;5.10;;;;;;;;;;5061360;28;20212;-79
2020/12/03 09:33:13;;;;;;;6.37;4.40;;;;;;;;;;5038605;28;20203;-79
2020/12/03 09:35:42;;;;;;;8.17;5.03;;;;;;;;;;5039475;28;20209;-79
2020/12/03 09:38:10;;;;;;;8.17;4.67;;;;;;;;;;5043696;28;20204;-79
2020/12/03 09:40:45;;;;;;;5.97;4.17;;;;;;;;;;5044564;28;20218;-78
2020/12/03 09:43:17;;;;;;;8.23;5.27;;;;;;;;;;5055186;28;20230;-78
2020/12/03 09:45:48;;;;;;;6.87;4.17;;;;;;;;;;5026330;28;20201;-78
2020/12/03 09:48:18;;;;;;;5.50;3.70;;;;;;;;;;5018118;28;20925;-77
2020/12/03 09:50:49;;;;;;;5.70;4.30;;;;;;;;;;5033464;28;20208;-77
2020/12/03 09:53:18;;;;;;;7.33;5.17;;;;;;;;;;5035209;28;20216;-77
2020/12/03 09:55:48;;;;;;;8.20;4.70;;;;;;;;;;5024136;28;20209;-77
2020/12/03 09:58:19;;;;;;;6.87;4.70;;;;;;;;;;5018181;28;20251;-77
2020/12/03 10:00:48;;;;;;;5.07;3.90;;;;;;;;;;5025008;28;20220;-77
2020/12/03 10:03:43;;;;;;;5.37;3.90;;;;;;;;;;5023937;28;20270;-77
2020/12/03 10:06:19;;;;;;;6.53;4.80;;;;;;;;;;5006408;28;20208;-77
2020/12/03 10:08:56;;;;;;;6.90;4.30;;;;;;;;;;5022581;28;20211;-77
2020/12/03 10:11:45;;;;;;;6.10;4.13;;;;;;;;;;5026954;28;20229;-77
2020/12/03 10:14:39;;;;;;;6.60;4.53;;;;;;;;;;5055774;28;20538;-77
2020/12/03 10:17:08;;;;;;;5.87;3.70;;;;;;;;;;5017542;28;20203;-78
2020/12/03 10:19:37;;;;;;;6.17;4.37;;;;;;;;;;5026443;28;20197;-77
2020/12/03 10:22:05;;;;;;;4.83;4.33;;;;;;;;;;5033356;28;20208;-81
2020/12/03 10:24:39;;;;;;;6.00;4.47;;;;;;;;;;5055605;28;20238;-80
2020/12/03 10:27:13;;;;;;;5.57;4.20;;;;;;;;;;5038293;28;20224;-78
2020/12/03 10:29:45;;;;;;;5.73;4.60;;;;;;;;;;5023381;28;20586;-78
2020/12/03 10:32:16;;;;;;;5.23;3.83;;;;;;;;;;5020829;28;20221;-78
2020/12/03 10:34:46;;;;;;;5.83;4.40;;;;;;;;;;5046841;28;20200;-78
2020/12/03 10:37:27;;;;;;;6.43;4.23;;;;;;;;;;5009401;28;20214;-78
2020/12/03 10:39:58;;;;;;;6.07;4.30;;;;;;;;;;5019642;28;20205;-79
2020/12/03 10:42:32;;;;;;;5.23;4.43;;;;;;;;;;5012081;28;20736;-78
2020/12/03 10:45:04;;;;;;;5.17;4.13;;;;;;;;;;5038532;28;20231;-78
2020/12/03 10:47:37;;;;;;;6.10;4.83;;;;;;;;;;5026839;28;20213;-78
2020/12/03 10:50:06;;;;;;;5.47;4.00;;;;;;;;;;5049008;28;20662;-79
2020/12/03 10:52:34;;;;;;;6.13;4.77;;;;;;;;;;5028931;28;20251;-85
2020/12/03 10:55:01;;;;;;;6.03;4.80;;;;;;;;;;5023403;28;20193;-80
2020/12/03 10:57:32;;;;;;;5.20;4.03;;;;;;;;;;5042161;28;20212;-82
2020/12/03 11:00:01;;;;;;;8.63;4.90;;;;;;;;;;5029547;28;20212;-78
2020/12/03 11:02:35;;;;;;;5.43;4.30;;;;;;;;;;5031986;28;20225;-80
2020/12/03 11:05:06;;;;;;;5.23;4.60;;;;;;;;;;5031695;28;20311;-79
2020/12/03 11:07:34;;;;;;;5.40;4.10;;;;;;;;;;5063708;28;20251;-79
2020/12/03 11:10:02;;;;;;;5.50;4.60;;;;;;;;;;5031639;28;20580;-82
2020/12/03 11:12:31;;;;;;;7.97;4.03;;;;;;;;;;5055386;28;20228;-80
2020/12/03 11:15:03;;;;;;;4.87;4.10;;;;;;;;;;5031770;28;20207;-79
2020/12/03 11:18:01;;;;;;;6.60;4.60;;;;;;;;;;5008390;28;20212;-78
2020/12/03 11:20:52;;;;;;;4.63;4.10;;;;;;;;;;4993556;28;20300;-77
2020/12/03 11:23:23;;;;;;;4.57;3.87;;;;;;;;;;5013344;28;20697;-80
2020/12/03 11:25:52;;;;;;;4.93;3.93;;;;;;;;;;5024113;28;20205;-78
2020/12/03 11:28:35;;;;;;;4.17;3.40;;;;;;;;;;5046164;28;20215;-79
2020/12/03 11:31:06;;;;;;;5.90;4.20;;;;;;;;;;5033113;28;20231;-77
2020/12/03 11:33:36;;;;;;;5.63;4.20;;;;;;;;;;5017764;28;20212;-77
2020/12/03 11:36:05;;;;;;;5.80;4.30;;;;;;;;;;5026738;28;20215;-77
2020/12/03 11:38:33;;;;;;;3.97;3.43;;;;;;;;;;5030880;28;20708;-78
2020/12/03 11:41:04;;;;;;;4.67;4.00;;;;;;;;;;5031526;28;20239;-78
2020/12/03 11:49:01;;;;;;;5.07;3.57;;;;;;;;;;4997659;28;20202;-79
2020/12/03 11:51:30;;;;;;;4.43;3.77;;;;;;;;;;5014339;28;20233;-82
2020/12/03 11:54:00;;;;;;;4.33;3.63;;;;;;;;;;5025970;28;20212;-79
2020/12/03 11:56:29;;;;;;;4.20;3.60;;;;;;;;;;5026443;28;20572;-81
2020/12/03 11:59:14;;;;;;;4.83;3.67;;;;;;;;;;5031052;28;20300;-80
2020/12/03 12:01:50;;;;;;;4.17;3.40;;;;;;;;;;5018926;28;20229;-79
2020/12/03 12:04:19;;;;;;;3.30;2.90;;;;;;;;;;5031101;28;20226;-78
2020/12/03 12:06:51;;;;;;;3.60;2.27;;;;;;;;;;5008026;28;20220;-82
2020/12/03 12:09:23;;;;;;;2.70;2.50;;;;;;;;;;5026050;28;20201;-80
2020/12/03 12:11:51;;;;;;;4.20;2.50;;;;;;;;;;5009473;28;20232;-83
2020/12/03 12:14:19;;;;;;;4.03;2.60;;;;;;;;;;5029034;28;20385;-79
2020/12/03 12:16:47;;;;;;;3.37;2.70;;;;;;;;;;5018892;28;20551;-82
2020/12/03 12:19:14;;;;;;;3.47;2.70;;;;;;;;;;5025523;28;20208;-78
2020/12/03 12:21:43;;;;;;;3.67;2.80;;;;;;;;;;5048448;28;20593;-79
2020/12/03 12:24:10;;;;;;;3.73;2.77;;;;;;;;;;5026217;28;20583;-78
2020/12/03 12:26:38;;;;;;;3.70;2.63;;;;;;;;;;5047503;28;20204;-79
2020/12/03 12:29:05;;;;;;;3.23;2.83;;;;;;;;;;5022087;28;20212;-79
2020/12/03 12:31:34;;;;;;;3.60;2.80;;;;;;;;;;5014512;28;20261;-78
2020/12/03 12:34:01;;;;;;;3.20;2.50;;;;;;;;;;5028388;28;20244;-79
2020/12/03 12:36:29;;;;;;;3.60;2.63;;;;;;;;;;5029994;28;20200;-79
2020/12/03 12:38:57;;;;;;;3.30;2.73;;;;;;;;;;5029807;28;20204;-79
2020/12/03 12:41:24;;;;;;;4.33;2.90;;;;;;;;;;5016021;28;20243;-78
2020/12/03 12:43:52;;;;;;;2.87;2.33;;;;;;;;;;5042144;28;20208;-78
2020/12/03 12:46:20;;;;;;;3.70;2.60;;;;;;;;;;5023097;28;20215;-78
2020/12/03 12:48:49;;;;;;;4.93;2.63;;;;;;;;;;5029412;28;20203;-78
2020/12/03 12:51:17;;;;;;;3.50;2.37;;;;;;;;;;5032422;28;20605;-78
2020/12/03 12:53:45;;;;;;;2.60;2.13;;;;;;;;;;5012728;28;20208;-79
2020/12/03 12:56:13;;;;;;;3.17;2.30;;;;;;;;;;5031576;28;20200;-79
2020/12/03 12:58:41;;;;;;;4.80;2.83;;;;;;;;;;5012483;28;20223;-78
2020/12/03 13:01:09;;;;;;;3.43;2.53;;;;;;;;;;5045421;28;20228;-78
2020/12/03 13:03:36;;;;;;;3.17;2.80;;;;;;;;;;5031711;28;20216;-78
2020/12/03 13:06:05;;;;;;;3.43;2.93;;;;;;;;;;5019663;28;20724;-81
2020/12/03 13:08:32;;;;;;;3.43;2.83;;;;;;;;;;5061711;28;20211;-80
2020/12/03 13:11:00;;;;;;;3.00;2.70;;;;;;;;;;5021592;28;20216;-78
2020/12/03 13:13:29;;;;;;;3.07;2.67;;;;;;;;;;5029789;28;20204;-78
2020/12/03 13:15:57;;;;;;;2.70;2.43;;;;;;;;;;5029707;28;20208;-83
2020/12/03 13:18:24;;;;;;;4.13;2.80;;;;;;;;;;5069727;28;20199;-86
2020/12/03 13:20:52;;;;;;;3.07;2.50;;;;;;;;;;5055168;28;20208;-87
2020/12/03 13:23:21;;;;;;;3.13;2.73;;;;;;;;;;5027977;28;20211;-78
2020/12/03 13:25:48;;;;;;;3.40;2.87;;;;;;;;;;5020952;28;20478;-78
2020/12/03 13:28:16;;;;;;;3.10;2.47;;;;;;;;;;5043065;28;20277;-78
2020/12/03 13:30:43;;;;;;;4.17;3.07;;;;;;;;;;5010514;28;20200;-78
2020/12/03 13:33:11;;;;;;;4.30;2.93;;;;;;;;;;5028087;28;20212;-80
2020/12/03 13:35:38;;;;;;;2.57;2.37;;;;;;;;;;5016374;28;20205;-80
2020/12/03 13:38:06;;;;;;;3.13;2.50;;;;;;;;;;5016600;28;20216;-78
2020/12/03 13:40:34;;;;;;;3.13;2.67;;;;;;;;;;5029942;28;20208;-78
2020/12/03 13:43:02;;;;;;;3.07;2.53;;;;;;;;;;5023065;28;20205;-78
2020/12/03 13:45:29;;;;;;;4.73;3.00;;;;;;;;;;5045913;28;20591;-77
2020/12/03 13:47:57;;;;;;;4.07;3.07;;;;;;;;;;5025335;28;20207;-80
2020/12/03 13:50:24;;;;;;;3.60;2.80;;;;;;;;;;5024065;28;20201;-78
2020/12/03 13:52:52;;;;;;;2.90;2.60;;;;;;;;;;5028515;28;20196;-78
2020/12/03 13:55:20;;;;;;;3.97;3.20;;;;;;;;;;5025866;28;20196;-78
2020/12/03 13:57:48;;;;;;;4.13;3.07;;;;;;;;;;5031476;28;20681;-77
2020/12/03 14:00:16;;;;;;;3.73;3.03;;;;;;;;;;5030885;28;20211;-77
2020/12/03 14:02:43;;;;;;;4.27;3.13;;;;;;;;;;5023120;28;20230;-78
2020/12/03 14:05:11;;;;;;;4.37;2.80;;;;;;;;;;5013942;28;20242;-77
2020/12/03 14:07:51;;;;;;;3.87;3.00;;;;;;;;;;5007981;28;20208;-77
2020/12/03 14:10:18;;;;;;;4.47;3.33;;;;;;;;;;5016307;28;20212;-77
2020/12/03 14:12:46;;;;;;;5.77;3.20;;;;;;;;;;5034073;28;20228;-77
2020/12/03 14:15:14;;;;;;;3.87;3.00;;;;;;;;;;5019566;28;20574;-77
2020/12/03 14:17:44;;;;;;;4.70;3.40;;;;;;;;;;5028046;28;20670;-78
2020/12/03 14:20:12;;;;;;;3.97;2.97;;;;;;;;;;5035560;28;20212;-76
2020/12/03 14:22:40;;;;;;;5.10;3.63;;;;;;;;;;5037027;28;20377;-77
2020/12/03 14:25:08;;;;;;;4.40;3.13;;;;;;;;;;5036567;28;20232;-77
2020/12/03 14:27:36;;;;;;;5.13;2.90;;;;;;;;;;5036693;28;20204;-78
2020/12/03 14:30:07;;;;;;;4.90;3.20;;;;;;;;;;5032839;28;20238;-77
2020/12/03 14:32:36;;;;;;;4.60;3.47;;;;;;;;;;5012488;28;20713;-77
2020/12/03 14:35:04;;;;;;;4.60;3.30;;;;;;;;;;5035172;28;20649;-77
2020/12/03 14:37:35;;;;;;;5.90;3.30;;;;;;;;;;5017018;28;20213;-77
2020/12/03 14:40:05;;;;;;;5.00;3.43;;;;;;;;;;5063008;28;20670;-78
2020/12/03 14:42:33;;;;;;;5.37;3.80;;;;;;;;;;5021563;28;20228;-78
2020/12/03 14:45:01;;;;;;;5.50;3.53;;;;;;;;;;5053231;28;20231;-79
2020/12/03 14:47:31;;;;;;;4.03;3.03;;;;;;;;;;5068672;28;20205;-78
2020/12/03 14:50:01;;;;;;;4.83;3.40;;;;;;;;;;5028967;28;20205;-77
2020/12/03 14:52:29;;;;;;;4.97;3.77;;;;;;;;;;5044423;28;20236;-77
2020/12/03 14:54:57;;;;;;;5.53;4.00;;;;;;;;;;5035440;28;20215;-77
2020/12/03 14:57:24;;;;;;;5.03;3.57;;;;;;;;;;5035243;28;20215;-77
2020/12/03 14:59:52;;;;;;;4.60;3.53;;;;;;;;;;5037071;28;20666;-77
2020/12/03 15:02:20;;;;;;;5.93;3.50;;;;;;;;;;5012195;28;20231;-77